Flight Track Log - Related Links

Times and Time Zones

All times are in EDT time to prevent confusion due to time zone crossing. See the EJA922P flight status page for this flight to view local times or setup timezone preferences in your user account.


Time Position Orientation Groundspeed Altitude Reporting Facility
EDT Latitude Longitude Course Direction KTS MPH feet Rate Location/Type
Wed 11:53:11 AM 40.0039 -82.9131 272° West 152 175 1,500  Level Indianapolis Center
Wed 11:53:55 AM 40.0053 -82.9650 272° West 205 236 3,700 3,340 Climbing Indianapolis Center
Wed 11:54:57 AM 39.9572 -83.0056 213° Southwest 279 321 7,400 3,339 Climbing Indianapolis Center
Wed 11:55:59 AM 39.8931 -82.9592 151° Southeast 272 313 10,600 2,439 Climbing Indianapolis Center
Wed 11:57:00 AM 39.8222 -82.9042 149° Southeast 286 329 12,400 1,707 Climbing Indianapolis Center
Wed 11:58:02 AM 39.7347 -82.8411 151° Southeast 341 392 14,100 1,790 Climbing Indianapolis Center
Wed 11:59:04 AM 39.6453 -82.7744 150° Southeast 362 417 16,100 1,790 Climbing Indianapolis Center
Wed 12:00:06 PM 39.5308 -82.6875 150° Southeast 388 447 17,800 1,742 Climbing Indianapolis Center
Wed 12:01:08 PM 39.4272 -82.6278 156° South 407 468 19,700 1,645 Climbing Indianapolis Center
Wed 12:02:10 PM 39.3136 -82.6311 181° South 408 470 21,200 1,306 Climbing Indianapolis Center
Wed 12:03:12 PM 39.1997 -82.6417 184° South 409 471 22,400 1,258 Climbing Indianapolis Center
Wed 12:04:14 PM 39.0817 -82.6500 183° South 413 475 23,800 1,452 Climbing Indianapolis Center
Wed 12:05:16 PM 38.9603 -82.6600 184° South 424 488 25,400 1,548 Climbing Indianapolis Center
Wed 12:06:18 PM 38.8094 -82.6736 184° South 444 511 27,000 1,403 Climbing Indianapolis Center
Wed 12:07:20 PM 38.6806 -82.6831 183° South 458 527 28,300 1,355 Climbing Indianapolis Center
Wed 12:08:22 PM 38.5594 -82.6936 184° South 465 535 29,800 1,403 Climbing Indianapolis Center
Wed 12:09:24 PM 38.4047 -82.7056 183° South 472 543 31,200 1,984 Climbing Indianapolis Center
Wed 12:10:26 PM 38.2736 -82.7328 189° South 474 545 33,900 1,839 Climbing Indianapolis Center
Wed 12:11:28 PM 38.1517 -82.7889 200° South 467 537 35,000 1,016 Climbing Indianapolis Center
Wed 12:12:30 PM 38.0244 -82.8544 202° Southwest 484 557 36,000 484 Climbing Indianapolis Center
Wed 12:13:32 PM 37.8908 -82.9217 202° Southwest 508 585 36,000  Level Indianapolis Center
Wed 12:14:34 PM 37.7303 -83.0039 202° Southwest 528 608 36,000 484 Level Indianapolis Center
Wed 12:15:36 PM 37.5936 -83.0714 201° Southwest 528 608 37,000 1,452 Climbing Indianapolis Center
Wed 12:16:38 PM 37.4625 -83.1367 202° Southwest 513 590 39,000 1,742 Climbing Indianapolis Center
Wed 12:17:40 PM 37.3350 -83.2014 202° Southwest 502 578 40,600 1,500 Climbing Indianapolis Center
Wed 12:18:42 PM 37.2083 -83.2628 201° Southwest 495 570 42,100 1,161 Climbing Indianapolis Center
Wed 12:19:44 PM 37.0658 -83.3331 201° Southwest 480 552 43,000 439 Climbing Indianapolis Center
Wed 12:20:45 PM 36.9458 -83.3928 202° Southwest 473 544 43,000  Level Indianapolis Center
Wed 12:21:47 PM 36.8242 -83.4519 201° Southwest 472 543 43,000  Level Indianapolis Center
Wed 12:22:49 PM 36.6981 -83.5128 201° Southwest 480 552 43,000  Level Indianapolis Center
Wed 12:23:51 PM 36.5706 -83.5744 201° Southwest 488 562 43,000  Level Indianapolis Center
Wed 12:24:53 PM 36.4358 -83.6386 201° Southwest 489 563 43,000  Level Indianapolis Center
Wed 12:25:55 PM 36.3103 -83.7000 202° Southwest 489 563 43,000  Level Indianapolis Center
Wed 12:26:57 PM 36.1844 -83.7600 201° Southwest 487 560 43,000  Level Indianapolis Center
Wed 12:27:39 PM 36.0769 -83.8128 202° Southwest 484 557 43,000  Level Atlanta Center
Wed 12:28:39 PM 35.9558 -83.8719 202° Southwest 484 557 43,000  Level Atlanta Center
Wed 12:29:39 PM 35.8392 -83.9414 206° Southwest 478 550 43,000  Level Atlanta Center
Wed 12:30:39 PM 35.7308 -84.0261 212° Southwest 467 537 43,000  Level Atlanta Center
Wed 12:31:39 PM 35.6203 -84.1078 211° Southwest 467 537 43,000  Level Atlanta Center
Wed 12:32:39 PM 35.5117 -84.1892 211° Southwest 467 537 43,000  Level Atlanta Center
Wed 12:33:39 PM 35.4031 -84.2731 212° Southwest 467 537 43,000  Level Atlanta Center
Wed 12:34:39 PM 35.2922 -84.3569 212° Southwest 472 543 43,000  Level Atlanta Center
Wed 12:35:39 PM 35.1794 -84.4428 212° Southwest 478 550 43,000  Level Atlanta Center
Wed 12:36:39 PM 35.0642 -84.5336 213° Southwest 483 556 43,000  Level Atlanta Center
Wed 12:37:39 PM 34.9511 -84.6192 212° Southwest 483 556 43,000  Level Atlanta Center
Wed 12:38:39 PM 34.8358 -84.7069 212° Southwest 488 562 43,000  Level Atlanta Center
Wed 12:39:39 PM 34.7186 -84.7944 212° Southwest 493 567 43,000  Level Atlanta Center
Wed 12:40:39 PM 34.5872 -84.7881 178° South 458 527 43,000  Level Atlanta Center
Wed 12:41:39 PM 34.4539 -84.7367 162° South 467 537 43,000  Level Atlanta Center
Wed 12:42:39 PM 34.3186 -84.6878 163° South 486 559 43,000  Level Atlanta Center
Wed 12:43:39 PM 34.1831 -84.6389 163° South 492 566 43,000  Level Atlanta Center
Wed 12:44:39 PM 34.0478 -84.5903 163° South 497 572 43,000  Level Atlanta Center
Wed 12:45:39 PM 33.9142 -84.5444 164° South 502 578 43,000  Level Atlanta Center
Wed 12:46:39 PM 33.7914 -84.4961 162° South 502 578 43,000  Level Atlanta Center
Wed 12:47:39 PM 33.6619 -84.4506 164° South 497 572 43,000  Level Atlanta Center
Wed 12:48:39 PM 33.5181 -84.4350 175° South 497 572 43,000  Level Atlanta Center
Wed 12:49:39 PM 33.3803 -84.4319 179° South 502 578 43,000  Level Atlanta Center
Wed 12:50:39 PM 33.2406 -84.4286 179° South 497 572 43,000  Level Atlanta Center
Wed 12:51:39 PM 33.1006 -84.4231 178° South 497 572 43,000  Level Atlanta Center
Wed 12:52:39 PM 32.9628 -84.4225 180° South 497 572 43,000  Level Atlanta Center
Wed 12:53:39 PM 32.8231 -84.4219 180° South 497 572 43,000  Level Atlanta Center
Wed 12:54:39 PM 32.6853 -84.4189 179° South 497 572 43,000  Level Atlanta Center
Wed 12:55:39 PM 32.5433 -84.4158 179° South 497 572 43,000  Level Atlanta Center
Wed 12:56:39 PM 32.4036 -84.4128 179° South 497 572 43,000 -450 Level Atlanta Center
Wed 12:57:39 PM 32.2658 -84.4097 179° South 497 572 42,100 -800 Descending Atlanta Center
Wed 12:58:39 PM 32.1258 -84.4067 179° South 497 572 41,400 -579 Descending Atlanta Center
Wed 12:59:33 PM 31.9883 -84.4014 178° South 496 571 41,000 -211 Descending Jacksonville Center
Wed 01:00:33 PM 31.8486 -84.4017 180° South 496 571 41,000  Level Jacksonville Center
Wed 01:01:33 PM 31.7108 -84.3969 178° South 496 571 41,000  Level Jacksonville Center
Wed 01:02:34 PM 31.5667 -84.3947 179° South 496 571 41,000  Level Jacksonville Center
Wed 01:03:33 PM 31.4228 -84.3897 178° South 511 588 41,000  Level Jacksonville Center
Wed 01:04:33 PM 31.2792 -84.3608 170° South 516 594 41,000  Level Jacksonville Center
Wed 01:05:33 PM 31.1439 -84.3150 164° South 516 594 41,000  Level Jacksonville Center
Wed 01:06:33 PM 31.0169 -84.2719 164° South 516 594 41,000  Level Jacksonville Center
Wed 01:07:33 PM 30.8817 -84.2286 165° South 516 594 41,000  Level Jacksonville Center
Wed 01:08:33 PM 30.7444 -84.1858 165° South 510 587 41,000  Level Jacksonville Center
Wed 01:09:33 PM 30.6092 -84.1406 164° South 510 587 41,000  Level Jacksonville Center
Wed 01:10:33 PM 30.4633 -84.0953 165° South 501 577 41,000  Level Jacksonville Center
Wed 01:11:33 PM 30.3258 -84.0525 165° South 501 577 41,000  Level Jacksonville Center
Wed 01:12:33 PM 30.1906 -84.0125 166° South 501 577 41,000  Level Jacksonville Center
Wed 01:13:33 PM 30.0553 -83.9700 165° South 506 582 41,000 -800 Level Jacksonville Center
Wed 01:14:33 PM 29.9158 -83.9253 164° South 511 588 39,400 -2,050 Descending Jacksonville Center
Wed 01:15:33 PM 29.7722 -83.8689 161° South 526 605 36,900 -2,450 Descending Jacksonville Center
Wed 01:16:33 PM 29.6433 -83.7864 151° Southeast 531 611 34,500 -2,350 Descending Jacksonville Center
Wed 01:17:33 PM 29.5167 -83.7039 150° Southeast 524 603 32,200 -2,350 Descending Jacksonville Center
Wed 01:18:33 PM 29.3875 -83.6172 150° Southeast 529 609 29,800 -2,400 Descending Jacksonville Center
Wed 01:19:33 PM 29.2586 -83.5378 152° Southeast 529 609 27,400 -1,850 Descending Jacksonville Center
Wed 01:20:33 PM 29.1483 -83.4656 150° Southeast 523 602 26,100 -1,400 Descending Jacksonville Center
Wed 01:21:33 PM 29.0275 -83.3889 151° Southeast 513 590 24,600 -1,750 Descending Jacksonville Center
Wed 01:22:33 PM 28.9108 -83.3172 152° Southeast 492 566 22,600 -2,100 Descending Jacksonville Center
Wed 01:23:33 PM 28.7983 -83.2456 151° Southeast 477 549 20,400 -2,011 Descending Jacksonville Center
Wed 01:25:41 PM 28.5833 -83.1167 152° Southeast 347 399 16,300 -1,819 Descending Tampa TRACON
Wed 01:26:41 PM 28.5000 -83.0500 145° Southeast 316 364 14,700 -1,524 Descending Tampa TRACON
Wed 01:27:47 PM 28.4333 -83.0167 156° South 294 338 13,100 -1,476 Descending Tampa TRACON
Wed 01:28:47 PM 28.3500 -82.9667 152° Southeast 299 344 11,600 -1,500 Descending Tampa TRACON
Wed 01:29:23 PM 28.3097 -82.9325 143° Southeast 300 345 10,700 -1,469 Descending Miami Center
Wed 01:30:25 PM 28.2422 -82.8908 151° Southeast 281 323 9,200 -1,542 Descending Miami Center
Wed 01:31:47 PM 28.1667 -82.8167 139° Southeast 261 300 7,000 -1,191 Descending Tampa TRACON
Wed 01:32:41 PM 28.1333 -82.7667 127° Southeast 252 290 6,500 -1,111 Descending Tampa TRACON
Wed 01:33:35 PM 28.0833 -82.7000 130° Southeast 253 291 5,000 -789 Descending Tampa TRACON
Wed 01:34:35 PM 28.0333 -82.6500 139° Southeast 260 299 5,000 -273 Level Tampa TRACON
Wed 01:35:47 PM 27.9500 -82.6167 161° South 256 295 4,400 -909 Descending Tampa TRACON
Wed 01:36:47 PM 27.8833 -82.6167 180° South 265 305 3,000 -737 Descending Tampa TRACON
Wed 01:37:41 PM 27.8667 -82.5667 111° Southeast 188 216 3,000 -778 Level Tampa TRACON
Wed 01:38:35 PM 27.8833 -82.5500 41° Northeast 158 182 1,600 -1,050 Descending Tampa TRACON
Wed 01:39:41 PM 27.9333 -82.5500 360° North 133 153 900 -636 Descending Tampa TRACON

Login

Don't have an account? Register now (free) for customized features, flight alerts, and more!